Time;durP1;ratioP1;P1;durP2;ratioP2;P2;SDS_P1;SDS_P2;PMS_P1;PMS_P2;Temp;Humidity;BMP_temperature;BMP_pressure;BME280_temperature;BME280_humidity;BME280_pressure;Samples;Min_cycle;Max_cycle;Signal;HPM_P1;HPM_P2
2023/02/22 00:00:21;;;;;;;4.78;4.47;;;17.50;95.80;;;;;;5044335;28;20045;-78
2023/02/22 00:02:48;;;;;;;5.03;4.63;;;17.50;95.90;;;;;;5047312;28;20078;-78
2023/02/22 00:05:15;;;;;;;5.22;4.82;;;17.50;95.90;;;;;;5043047;28;20067;-78
2023/02/22 00:07:43;;;;;;;4.50;4.05;;;17.40;95.80;;;;;;5049313;28;20047;-79
2023/02/22 00:10:12;;;;;;;4.80;4.40;;;17.40;95.90;;;;;;5047943;28;20048;-78
2023/02/22 00:12:41;;;;;;;4.63;4.32;;;17.40;95.90;;;;;;5044067;28;20136;-78
2023/02/22 00:15:07;;;;;;;4.93;4.53;;;17.40;95.90;;;;;;5047394;28;20476;-78
2023/02/22 00:17:33;;;;;;;5.20;4.88;;;17.40;96.00;;;;;;5046259;28;20033;-78
2023/02/22 00:19:59;;;;;;;5.07;4.78;;;17.30;96.00;;;;;;5057344;28;20120;-78
2023/02/22 00:22:24;;;;;;;4.88;4.57;;;17.30;96.00;;;;;;5047404;28;20503;-78
2023/02/22 00:24:50;;;;;;;5.03;4.63;;;17.30;96.00;;;;;;5052718;28;20059;-78
2023/02/22 00:27:16;;;;;;;5.25;4.85;;;17.30;96.10;;;;;;5064526;28;20090;-78
2023/02/22 00:29:45;;;;;;;5.03;4.57;;;17.30;96.10;;;;;;5030161;28;21950;-78
2023/02/22 00:32:11;;;;;;;5.53;5.07;;;17.30;96.10;;;;;;5047393;28;20033;-78
2023/02/22 00:34:36;;;;;;;4.53;4.22;;;17.20;96.10;;;;;;5039418;28;20044;-79
2023/02/22 00:37:03;;;;;;;5.32;4.90;;;17.20;96.10;;;;;;5066486;28;20041;-78
2023/02/22 00:39:29;;;;;;;5.10;4.80;;;17.20;96.20;;;;;;5064822;28;20127;-78
2023/02/22 00:41:55;;;;;;;5.10;4.70;;;17.20;96.20;;;;;;5048078;28;20037;-78
2023/02/22 00:44:20;;;;;;;5.75;5.25;;;17.20;96.20;;;;;;5066558;28;20074;-78
2023/02/22 00:46:46;;;;;;;4.88;4.55;;;17.20;96.30;;;;;;5045270;28;20103;-78
2023/02/22 00:49:12;;;;;;;5.55;5.15;;;17.10;96.20;;;;;;5044109;28;20040;-78
2023/02/22 00:51:37;;;;;;;5.00;4.70;;;17.10;96.30;;;;;;5045217;28;20036;-78
2023/02/22 00:54:04;;;;;;;5.22;4.88;;;17.10;96.30;;;;;;5047178;28;20036;-78
2023/02/22 00:56:31;;;;;;;5.30;4.90;;;17.10;96.20;;;;;;5056428;28;20473;-78
2023/02/22 00:58:56;;;;;;;4.95;4.65;;;17.10;96.30;;;;;;5067378;28;20051;-78
2023/02/22 01:01:22;;;;;;;4.88;4.55;;;17.10;96.30;;;;;;5030304;28;20037;-78
2023/02/22 01:03:48;;;;;;;4.88;4.53;;;17.00;96.30;;;;;;5047250;28;20052;-78
2023/02/22 01:06:14;;;;;;;5.38;4.95;;;17.00;96.30;;;;;;5046538;28;20056;-78
2023/02/22 01:08:43;;;;;;;5.47;5.07;;;17.00;96.40;;;;;;5044522;28;20407;-78
2023/02/22 01:11:09;;;;;;;5.70;5.30;;;17.00;96.40;;;;;;5040173;28;20111;-78
2023/02/22 01:13:34;;;;;;;5.00;4.70;;;17.00;96.40;;;;;;5032518;28;20048;-79
2023/02/22 01:16:00;;;;;;;5.75;5.35;;;17.00;96.40;;;;;;5065875;28;20051;-78
2023/02/22 01:18:26;;;;;;;5.25;4.95;;;17.00;96.40;;;;;;5045127;28;20495;-79
2023/02/22 01:20:51;;;;;;;5.53;5.03;;;16.90;96.40;;;;;;5048015;28;20037;-78
2023/02/22 01:23:17;;;;;;;5.20;4.80;;;16.90;96.50;;;;;;5045109;28;20121;-78
2023/02/22 01:25:42;;;;;;;5.50;5.13;;;16.90;96.40;;;;;;5047539;28;20048;-78
2023/02/22 01:28:08;;;;;;;5.25;4.85;;;16.90;96.50;;;;;;5044949;28;20516;-78
2023/02/22 01:30:34;;;;;;;6.00;5.57;;;16.80;96.50;;;;;;5064261;28;20041;-78
2023/02/22 01:33:01;;;;;;;5.90;5.40;;;16.80;96.50;;;;;;5037967;28;20521;-78
2023/02/22 01:35:31;;;;;;;4.70;4.43;;;16.80;96.50;;;;;;5087839;28;20051;-78
2023/02/22 01:37:57;;;;;;;4.78;4.47;;;16.90;96.50;;;;;;5064998;28;20037;-78
2023/02/22 01:40:26;;;;;;;5.30;5.00;;;16.80;96.60;;;;;;5044613;28;20581;-78
2023/02/22 01:42:54;;;;;;;5.90;5.50;;;16.90;96.50;;;;;;5062451;28;20036;-78
2023/02/22 01:45:28;;;;;;;5.35;4.97;;;16.80;96.50;;;;;;5045969;28;20083;-78
2023/02/22 01:48:26;;;;;;;4.72;4.40;;;16.80;96.60;;;;;;5049359;28;20127;-78
2023/02/22 01:51:13;;;;;;;5.65;5.22;;;16.80;96.70;;;;;;5061282;28;20040;-78
2023/02/22 01:53:46;;;;;;;5.03;4.72;;;16.80;96.70;;;;;;5045173;28;20036;-78
2023/02/22 01:56:11;;;;;;;4.88;4.57;;;16.70;96.60;;;;;;5056401;28;20533;-79
2023/02/22 01:58:38;;;;;;;5.38;5.07;;;16.80;96.50;;;;;;5045396;28;20047;-78
2023/02/22 02:01:04;;;;;;;6.18;5.47;;;16.80;96.60;;;;;;5044302;28;20056;-79
2023/02/22 02:03:32;;;;;;;5.00;4.70;;;16.80;96.60;;;;;;5048210;28;20481;-78
2023/02/22 02:05:58;;;;;;;5.90;5.40;;;16.80;96.60;;;;;;5044130;28;20094;-78
2023/02/22 02:08:37;;;;;;;5.20;4.90;;;16.70;96.70;;;;;;5044457;28;20041;-78
2023/02/22 02:11:04;;;;;;;5.53;5.13;;;16.70;96.70;;;;;;5044511;28;20476;-78
2023/02/22 02:13:30;;;;;;;4.45;4.15;;;16.70;96.70;;;;;;5047419;28;20037;-78
2023/02/22 02:15:55;;;;;;;4.47;4.10;;;16.70;96.70;;;;;;5047878;28;20044;-78
2023/02/22 02:18:21;;;;;;;4.80;4.45;;;16.70;96.70;;;;;;5044350;28;20427;-78
2023/02/22 02:20:46;;;;;;;4.70;4.40;;;16.70;96.70;;;;;;5046907;28;20497;-78
2023/02/22 02:23:12;;;;;;;4.47;4.07;;;16.70;96.60;;;;;;5054165;28;20057;-78
2023/02/22 02:25:46;;;;;;;4.78;4.47;;;16.70;96.70;;;;;;5045428;28;20056;-78
2023/02/22 02:28:12;;;;;;;4.82;4.43;;;16.70;96.70;;;;;;5042873;28;20037;-78
2023/02/22 02:31:02;;;;;;;5.00;4.68;;;16.70;96.60;;;;;;5045216;28;20383;-79
2023/02/22 02:33:32;;;;;;;4.85;4.55;;;16.80;96.60;;;;;;5078973;28;20049;-79
2023/02/22 02:36:22;;;;;;;4.47;4.20;;;16.70;96.60;;;;;;5069475;28;21166;-78
2023/02/22 02:39:21;;;;;;;4.50;4.20;;;16.70;96.60;;;;;;5079249;28;20041;-78
2023/02/22 02:41:49;;;;;;;4.20;4.00;;;16.70;96.60;;;;;;5047283;28;20056;-78
2023/02/22 02:44:21;;;;;;;4.43;4.13;;;16.60;96.60;;;;;;5061363;28;20063;-78
2023/02/22 02:46:58;;;;;;;4.90;4.60;;;16.70;96.60;;;;;;5043317;28;20137;-78
2023/02/22 02:49:38;;;;;;;4.55;4.25;;;16.60;96.60;;;;;;5047394;28;20046;-77
2023/02/22 02:52:04;;;;;;;4.65;4.35;;;16.70;96.60;;;;;;5048407;28;20045;-78
2023/02/22 02:54:30;;;;;;;4.68;4.38;;;16.60;96.50;;;;;;5048186;28;20091;-78
2023/02/22 02:56:56;;;;;;;4.80;4.50;;;16.60;96.50;;;;;;5046812;28;20036;-78
2023/02/22 02:59:27;;;;;;;4.70;4.30;;;16.70;96.60;;;;;;5046772;28;20040;-79
2023/02/22 03:02:02;;;;;;;4.90;4.60;;;16.60;96.60;;;;;;5049427;28;20111;-78
2023/02/22 03:04:27;;;;;;;4.43;4.15;;;16.70;96.60;;;;;;5052260;28;20098;-78
2023/02/22 03:07:22;;;;;;;4.88;4.53;;;16.60;96.60;;;;;;5069495;28;20037;-78
2023/02/22 03:10:12;;;;;;;4.47;4.18;;;16.60;96.60;;;;;;5065494;28;20052;-78
2023/02/22 03:12:40;;;;;;;5.00;4.70;;;16.60;96.60;;;;;;5007923;28;20038;-78
2023/02/22 03:15:41;;;;;;;4.45;4.15;;;16.60;96.60;;;;;;4989967;28;20030;-78
2023/02/22 03:18:09;;;;;;;3.83;3.63;;;16.60;96.60;;;;;;4999606;28;20041;-78
2023/02/22 03:20:46;;;;;;;4.13;3.92;;;16.60;96.60;;;;;;4975860;28;20515;-78
2023/02/22 03:23:14;;;;;;;4.05;3.78;;;16.60;96.90;;;;;;4997270;28;20062;-78
2023/02/22 03:25:42;;;;;;;4.95;4.55;;;16.60;96.70;;;;;;4973877;28;20587;-78
2023/02/22 03:28:10;;;;;;;4.28;4.07;;;16.50;96.70;;;;;;5018691;28;20069;-79
2023/02/22 03:30:44;;;;;;;4.82;4.53;;;16.50;96.70;;;;;;5007068;28;20042;-78
2023/02/22 03:33:32;;;;;;;4.53;4.25;;;16.50;96.70;;;;;;4972991;28;20041;-78
2023/02/22 03:36:01;;;;;;;4.10;3.90;;;16.60;96.70;;;;;;4982918;28;20060;-79
2023/02/22 03:38:27;;;;;;;4.30;4.07;;;16.50;96.90;;;;;;4975646;28;20048;-78
2023/02/22 03:40:53;;;;;;;4.05;3.75;;;16.50;96.70;;;;;;5012765;28;20046;-78
2023/02/22 03:43:23;;;;;;;4.80;4.50;;;16.60;96.70;;;;;;4971990;28;20043;-79
2023/02/22 03:45:49;;;;;;;4.05;3.75;;;16.50;96.70;;;;;;5021340;28;20034;-78
2023/02/22 03:48:22;;;;;;;4.10;3.90;;;16.50;96.70;;;;;;5007319;28;20060;-79
2023/02/22 03:50:48;;;;;;;3.80;3.60;;;16.50;96.70;;;;;;5044595;28;20502;-79
2023/02/22 03:53:13;;;;;;;3.63;3.30;;;16.50;96.70;;;;;;5046792;28;20292;-79
2023/02/22 03:55:39;;;;;;;4.32;4.03;;;16.50;96.70;;;;;;5058233;28;20595;-78
2023/02/22 03:58:10;;;;;;;4.50;4.20;;;16.50;96.80;;;;;;5055417;28;20039;-78
2023/02/22 04:00:36;;;;;;;4.35;4.05;;;16.50;96.80;;;;;;5053902;28;20044;-78
2023/02/22 04:03:01;;;;;;;4.35;4.05;;;16.50;96.80;;;;;;5061342;28;20777;-78
2023/02/22 04:05:27;;;;;;;4.30;4.10;;;16.50;96.80;;;;;;5060080;28;20059;-78
2023/02/22 04:07:53;;;;;;;3.83;3.63;;;16.50;96.90;;;;;;5065824;28;20064;-78
2023/02/22 04:10:19;;;;;;;4.45;4.15;;;16.50;96.90;;;;;;5048142;28;20041;-79
2023/02/22 04:12:44;;;;;;;4.00;3.80;;;16.50;96.90;;;;;;5049527;28;20047;-78
2023/02/22 04:15:12;;;;;;;3.85;3.65;;;16.50;96.90;;;;;;5051043;28;20048;-78
2023/02/22 04:17:37;;;;;;;4.15;3.88;;;16.50;96.90;;;;;;5046501;28;20079;-78
2023/02/22 04:20:05;;;;;;;4.15;3.95;;;16.40;97.00;;;;;;5046855;28;20072;-79
2023/02/22 04:22:30;;;;;;;4.00;3.80;;;16.40;97.00;;;;;;5065096;28;20127;-78
2023/02/22 04:24:56;;;;;;;3.97;3.78;;;16.40;97.00;;;;;;5059281;28;20132;-78
2023/02/22 04:27:21;;;;;;;4.40;4.10;;;16.40;97.00;;;;;;5062564;28;20052;-78
2023/02/22 04:29:47;;;;;;;4.25;3.95;;;16.40;97.00;;;;;;5048992;28;20552;-79
2023/02/22 04:32:12;;;;;;;4.20;3.90;;;16.40;96.90;;;;;;5046872;28;20115;-78
2023/02/22 04:34:38;;;;;;;4.22;3.97;;;16.40;96.80;;;;;;5043835;28;20550;-77
2023/02/22 04:37:03;;;;;;;3.85;3.60;;;16.40;97.00;;;;;;5061797;28;20827;-78
2023/02/22 04:39:29;;;;;;;4.63;4.32;;;16.50;97.00;;;;;;5049854;28;20120;-78
2023/02/22 04:41:55;;;;;;;3.88;3.67;;;16.40;97.00;;;;;;5051264;28;20467;-78
2023/02/22 04:44:20;;;;;;;3.67;3.47;;;16.40;97.10;;;;;;5050562;28;20048;-78
2023/02/22 04:46:46;;;;;;;3.85;3.65;;;16.40;97.10;;;;;;5050510;28;20579;-78
2023/02/22 04:49:11;;;;;;;3.60;3.40;;;16.40;97.00;;;;;;5048326;28;20062;-78
2023/02/22 04:51:37;;;;;;;3.05;2.95;;;16.40;97.10;;;;;;5047552;28;20501;-78
2023/02/22 04:54:02;;;;;;;3.70;3.50;;;16.30;97.10;;;;;;5041884;28;20086;-78
2023/02/22 04:56:28;;;;;;;3.90;3.70;;;16.40;97.10;;;;;;5064256;28;20712;-78
2023/02/22 04:58:54;;;;;;;3.80;3.60;;;16.30;97.10;;;;;;5063894;28;20482;-79
2023/02/22 05:01:19;;;;;;;4.22;4.03;;;16.30;97.10;;;;;;5033196;28;20047;-79
2023/02/22 05:03:45;;;;;;;4.05;3.75;;;16.30;97.10;;;;;;5052815;28;20136;-79
2023/02/22 05:06:13;;;;;;;3.78;3.58;;;16.30;97.20;;;;;;5044131;28;20659;-79
2023/02/22 05:08:38;;;;;;;5.03;4.72;;;16.30;97.10;;;;;;5062623;28;20087;-79
2023/02/22 05:11:04;;;;;;;3.60;3.40;;;16.30;97.10;;;;;;5048588;28;20517;-78
2023/02/22 05:13:30;;;;;;;3.70;3.50;;;16.30;97.10;;;;;;5049611;28;20044;-79
2023/02/22 05:15:56;;;;;;;3.50;3.30;;;16.30;97.10;;;;;;5043189;28;20048;-79
2023/02/22 05:18:21;;;;;;;3.50;3.30;;;16.30;97.10;;;;;;5046718;28;20040;-79
2023/02/22 05:20:47;;;;;;;3.90;3.70;;;16.30;97.20;;;;;;5065397;28;20123;-78
2023/02/22 05:23:12;;;;;;;3.75;3.55;;;16.30;97.60;;;;;;5049287;28;20047;-78
2023/02/22 05:25:38;;;;;;;3.97;3.78;;;16.30;97.20;;;;;;5032573;28;20060;-79
2023/02/22 05:28:07;;;;;;;4.13;3.92;;;16.30;97.30;;;;;;5046695;28;20509;-78
2023/02/22 05:30:33;;;;;;;3.80;3.50;;;16.30;97.20;;;;;;5045003;28;20051;-78
2023/02/22 05:32:59;;;;;;;3.67;3.50;;;16.30;97.30;;;;;;5049741;28;20041;-79
2023/02/22 05:35:25;;;;;;;3.67;3.47;;;16.30;97.40;;;;;;5062455;28;20102;-78
2023/02/22 05:37:51;;;;;;;3.45;3.25;;;16.20;97.40;;;;;;5044290;28;20029;-78
2023/02/22 05:40:21;;;;;;;3.30;3.10;;;16.30;97.40;;;;;;5063497;28;20124;-78
2023/02/22 05:42:47;;;;;;;3.40;3.20;;;16.20;97.40;;;;;;5043554;28;20051;-79
2023/02/22 05:45:13;;;;;;;4.10;3.80;;;16.30;97.50;;;;;;5044649;28;20066;-78
2023/02/22 05:47:39;;;;;;;3.58;3.38;;;16.30;97.50;;;;;;5052751;28;20541;-78
2023/02/22 05:50:05;;;;;;;3.58;3.38;;;16.20;97.50;;;;;;5051731;28;20135;-78
2023/02/22 05:52:31;;;;;;;3.72;3.53;;;16.20;97.50;;;;;;5063998;28;20045;-78
2023/02/22 05:54:56;;;;;;;3.75;3.47;;;16.30;97.40;;;;;;5050057;28;20043;-78
2023/02/22 05:57:22;;;;;;;3.90;3.70;;;16.20;97.50;;;;;;5061421;28;20044;-78
2023/02/22 05:59:47;;;;;;;3.67;3.47;;;16.20;97.50;;;;;;5057714;28;20075;-78
2023/02/22 06:02:13;;;;;;;4.13;3.80;;;16.20;97.50;;;;;;5064189;28;20040;-78
2023/02/22 06:04:39;;;;;;;3.65;3.45;;;16.30;97.60;;;;;;5045220;28;20045;-78
2023/02/22 06:07:05;;;;;;;3.33;3.13;;;16.20;97.50;;;;;;5045219;28;20486;-78
2023/02/22 06:09:30;;;;;;;4.35;4.05;;;16.30;97.50;;;;;;5046906;28;20045;-78
2023/02/22 06:11:56;;;;;;;3.50;3.30;;;16.20;97.60;;;;;;5045497;28;20458;-78
2023/02/22 06:14:23;;;;;;;3.75;3.55;;;16.20;97.60;;;;;;5040049;28;20042;-78
2023/02/22 06:16:53;;;;;;;4.00;3.70;;;16.20;97.60;;;;;;5054255;28;20041;-78
2023/02/22 06:19:18;;;;;;;3.70;3.50;;;16.20;97.60;;;;;;5062197;28;20048;-79
2023/02/22 06:21:54;;;;;;;3.70;3.53;;;16.20;97.90;;;;;;5048016;28;21980;-78
2023/02/22 06:24:20;;;;;;;3.55;3.35;;;16.20;97.60;;;;;;5043960;28;20088;-78
2023/02/22 06:26:45;;;;;;;3.75;3.45;;;16.20;97.70;;;;;;5061742;28;20127;-79
2023/02/22 06:29:11;;;;;;;3.10;2.97;;;16.20;97.60;;;;;;5056397;28;20041;-78
2023/02/22 06:31:37;;;;;;;3.60;3.40;;;16.20;97.60;;;;;;5046840;28;20036;-78
2023/02/22 06:34:02;;;;;;;3.40;3.20;;;16.20;97.60;;;;;;5053517;28;20103;-78
2023/02/22 06:36:28;;;;;;;3.10;3.00;;;16.30;97.60;;;;;;5037134;28;20033;-78
2023/02/22 06:38:55;;;;;;;3.38;3.17;;;16.20;97.60;;;;;;5059349;28;20052;-79
2023/02/22 06:41:21;;;;;;;4.00;3.80;;;16.20;97.70;;;;;;5061905;28;20044;-79
2023/02/22 06:43:47;;;;;;;3.83;3.58;;;16.20;97.70;;;;;;5045726;28;20067;-78
2023/02/22 06:46:12;;;;;;;3.30;3.10;;;16.20;97.70;;;;;;5075884;28;20100;-79
2023/02/22 06:48:39;;;;;;;3.72;3.53;;;16.20;97.70;;;;;;5043858;28;20429;-78
2023/02/22 06:51:07;;;;;;;3.13;3.00;;;16.10;97.70;;;;;;5045317;28;20036;-79
2023/02/22 06:53:33;;;;;;;3.40;3.20;;;16.20;97.60;;;;;;5041885;28;20076;-78
2023/02/22 06:55:58;;;;;;;2.70;2.60;;;16.20;97.70;;;;;;5083463;28;20413;-79
2023/02/22 06:58:24;;;;;;;3.38;3.17;;;16.20;97.70;;;;;;5060674;28;20046;-78
2023/02/22 07:00:49;;;;;;;3.17;2.97;;;16.20;97.70;;;;;;5044911;28;20055;-79
2023/02/22 07:03:15;;;;;;;3.30;3.10;;;16.20;97.60;;;;;;5063115;28;20044;-78
2023/02/22 07:05:41;;;;;;;3.40;3.17;;;16.20;97.50;;;;;;5046746;28;20083;-78
2023/02/22 07:08:07;;;;;;;3.75;3.55;;;16.30;97.40;;;;;;5052846;28;20509;-79
2023/02/22 07:10:34;;;;;;;3.60;3.40;;;16.30;97.50;;;;;;5063902;28;20124;-79
2023/02/22 07:13:00;;;;;;;3.33;3.22;;;16.30;97.30;;;;;;5050233;28;20182;-80
2023/02/22 07:15:26;;;;;;;3.28;3.10;;;16.20;97.40;;;;;;5042716;28;20041;-79
2023/02/22 07:17:52;;;;;;;3.60;3.40;;;16.20;97.50;;;;;;5063335;28;20051;-80
2023/02/22 07:20:19;;;;;;;3.75;3.40;;;16.20;97.50;;;;;;5049462;28;20053;-79
2023/02/22 07:22:45;;;;;;;3.70;3.50;;;16.30;97.70;;;;;;5051139;28;20033;-80
2023/02/22 07:25:11;;;;;;;3.17;3.00;;;16.30;97.50;;;;;;5047915;28;20473;-81
2023/02/22 07:27:38;;;;;;;4.05;3.75;;;16.30;97.60;;;;;;5045181;28;20075;-80
2023/02/22 07:30:07;;;;;;;9.50;3.75;;;16.40;97.50;;;;;;5047958;28;20053;-81
2023/02/22 07:32:33;;;;;;;4.28;3.88;;;16.40;97.60;;;;;;5049725;28;20094;-80
2023/02/22 07:35:01;;;;;;;3.22;3.03;;;16.40;97.50;;;;;;5041320;28;20052;-80
2023/02/22 07:37:27;;;;;;;3.60;3.38;;;16.40;97.50;;;;;;5052657;28;20510;-80
2023/02/22 07:39:52;;;;;;;3.25;3.05;;;16.30;97.50;;;;;;5033386;28;20045;-80
2023/02/22 07:42:18;;;;;;;3.65;3.38;;;16.30;97.60;;;;;;5043942;28;20553;-80
2023/02/22 07:44:43;;;;;;;3.40;3.10;;;16.30;97.70;;;;;;5051214;28;20098;-79
2023/02/22 07:47:11;;;;;;;3.42;3.22;;;16.30;97.70;;;;;;5065802;28;20052;-79
2023/02/22 07:49:37;;;;;;;3.70;3.40;;;16.20;97.70;;;;;;5054295;28;20533;-80
2023/02/22 07:52:02;;;;;;;11.38;3.25;;;16.20;97.70;;;;;;5043786;28;20062;-79
2023/02/22 07:54:28;;;;;;;4.53;3.03;;;16.20;97.70;;;;;;5065377;28;20436;-80
2023/02/22 07:56:53;;;;;;;2.97;2.78;;;16.20;97.70;;;;;;5034954;28;20040;-80
2023/02/22 07:59:20;;;;;;;3.78;3.58;;;16.20;97.60;;;;;;5060792;28;20528;-80
2023/02/22 08:01:48;;;;;;;3.38;3.08;;;16.20;97.80;;;;;;5068476;28;20032;-80
2023/02/22 08:04:14;;;;;;;3.22;3.00;;;16.10;97.80;;;;;;5045298;28;20052;-80
2023/02/22 08:06:39;;;;;;;2.97;2.80;;;16.20;97.70;;;;;;5067694;28;20489;-79
2023/02/22 08:09:05;;;;;;;3.65;3.45;;;16.10;97.70;;;;;;5063060;28;20147;-79
2023/02/22 08:11:31;;;;;;;3.33;3.10;;;16.20;97.70;;;;;;5054271;28;20375;-79
2023/02/22 08:13:56;;;;;;;3.53;3.22;;;16.20;97.70;;;;;;5065826;28;20044;-77
2023/02/22 08:16:22;;;;;;;3.65;3.42;;;16.20;97.80;;;;;;5057053;28;20516;-78
2023/02/22 08:18:47;;;;;;;3.45;3.25;;;16.20;97.60;;;;;;5047156;28;20040;-77
2023/02/22 08:21:13;;;;;;;3.45;3.25;;;16.20;97.60;;;;;;5055931;28;20036;-77
2023/02/22 08:23:38;;;;;;;3.08;2.97;;;16.20;97.60;;;;;;5048091;28;20077;-76
2023/02/22 08:26:08;;;;;;;2.97;2.88;;;16.30;97.60;;;;;;5054684;28;21527;-76
2023/02/22 08:28:33;;;;;;;3.20;3.00;;;16.30;97.60;;;;;;5062339;28;20063;-78
2023/02/22 08:30:59;;;;;;;3.78;2.63;;;16.30;97.70;;;;;;5059989;28;20036;-76
2023/02/22 08:33:25;;;;;;;3.85;2.97;;;16.40;97.70;;;;;;5053616;28;20127;-78
2023/02/22 08:35:50;;;;;;;3.45;3.22;;;16.40;97.60;;;;;;5049461;28;20044;-77
2023/02/22 08:38:22;;;;;;;2.47;2.28;;;16.40;97.70;;;;;;5057178;28;20045;-80
2023/02/22 08:40:48;;;;;;;5.10;2.50;;;16.50;97.70;;;;;;5053366;28;20033;-77
2023/02/22 08:43:13;;;;;;;3.15;2.80;;;16.40;97.50;;;;;;5043733;28;20037;-78
2023/02/22 08:45:39;;;;;;;3.13;2.92;;;16.40;97.70;;;;;;5052456;28;20052;-76
2023/02/22 08:48:05;;;;;;;3.08;2.92;;;16.40;97.70;;;;;;5042663;28;20041;-76
2023/02/22 08:50:34;;;;;;;3.78;3.15;;;16.40;97.80;;;;;;5050791;28;20463;-76
2023/02/22 08:53:00;;;;;;;3.00;2.80;;;16.40;97.90;;;;;;5049879;28;20621;-76
2023/02/22 08:55:29;;;;;;;2.63;2.53;;;16.40;97.90;;;;;;5048186;28;20041;-77
2023/02/22 08:57:56;;;;;;;2.80;2.65;;;16.40;97.90;;;;;;5047012;28;20052;-75
2023/02/22 09:00:24;;;;;;;2.92;2.60;;;16.40;97.80;;;;;;5034493;28;22311;-77
2023/02/22 09:02:50;;;;;;;2.40;2.30;;;16.40;98.00;;;;;;5028288;28;21954;-76
2023/02/22 09:05:16;;;;;;;2.30;2.20;;;16.40;97.60;;;;;;5019088;28;20146;-76
2023/02/22 09:07:42;;;;;;;2.40;2.30;;;16.40;97.70;;;;;;5051017;28;20936;-76
2023/02/22 09:10:18;;;;;;;3.65;2.42;;;16.40;97.70;;;;;;5051683;28;20068;-76
2023/02/22 09:12:43;;;;;;;3.25;2.58;;;16.40;97.70;;;;;;5042361;28;20033;-76
2023/02/22 09:15:09;;;;;;;2.45;2.28;;;16.40;97.80;;;;;;5042325;28;20041;-76
2023/02/22 09:17:36;;;;;;;3.30;2.20;;;16.40;97.80;;;;;;5043918;28;20482;-76
2023/02/22 09:20:05;;;;;;;5.43;2.28;;;16.40;97.80;;;;;;5043025;28;20071;-76
2023/02/22 09:22:30;;;;;;;4.10;2.63;;;16.40;97.80;;;;;;5043960;28;20033;-76
2023/02/22 09:24:56;;;;;;;2.47;2.35;;;16.40;97.80;;;;;;5043375;28;20070;-76
2023/02/22 09:27:21;;;;;;;3.30;2.50;;;16.30;97.80;;;;;;5043158;28;20037;-76
2023/02/22 09:29:47;;;;;;;3.13;2.75;;;16.30;98.00;;;;;;5042694;28;20049;-76
2023/02/22 09:32:16;;;;;;;2.40;2.20;;;16.30;97.90;;;;;;5042308;28;20612;-76
2023/02/22 09:34:44;;;;;;;4.10;2.47;;;16.20;98.00;;;;;;5039195;28;20252;-78
2023/02/22 09:37:10;;;;;;;2.60;2.40;;;16.20;98.00;;;;;;5043709;28;20041;-76
2023/02/22 09:39:36;;;;;;;2.20;2.10;;;16.20;97.90;;;;;;5051081;28;20036;-76
2023/02/22 09:42:11;;;;;;;2.13;2.03;;;16.30;97.90;;;;;;5043678;28;20498;-77
2023/02/22 09:44:53;;;;;;;2.38;2.17;;;16.30;98.00;;;;;;5043758;28;20106;-76
2023/02/22 09:47:31;;;;;;;2.95;2.42;;;16.30;97.90;;;;;;5048313;28;20043;-76
2023/02/22 09:50:14;;;;;;;2.58;2.42;;;16.30;97.90;;;;;;5047377;28;20414;-78
2023/02/22 09:52:55;;;;;;;2.35;2.20;;;16.20;98.00;;;;;;5058825;28;20037;-77
2023/02/22 09:55:40;;;;;;;2.20;2.10;;;16.20;98.00;;;;;;5042384;28;20045;-78
2023/02/22 09:58:20;;;;;;;2.35;2.25;;;16.30;97.90;;;;;;5043851;28;20037;-78
2023/02/22 10:00:46;;;;;;;2.60;2.50;;;16.30;97.80;;;;;;5043934;28;20520;-76
2023/02/22 10:03:20;;;;;;;2.67;2.47;;;16.40;97.90;;;;;;5048120;28;20112;-78
2023/02/22 10:06:01;;;;;;;2.17;2.08;;;16.40;97.90;;;;;;5044220;28;20045;-77
2023/02/22 10:08:28;;;;;;;2.40;2.30;;;16.50;98.10;;;;;;5038953;28;20064;-77
2023/02/22 10:11:36;;;;;;;3.88;1.85;;;16.40;97.70;;;;;;5074569;28;20040;-77
2023/02/22 10:14:14;;;;;;;2.13;2.03;;;16.30;97.80;;;;;;5044829;28;20060;-77
2023/02/22 10:16:53;;;;;;;2.20;2.10;;;16.30;97.90;;;;;;5035720;28;20037;-78
2023/02/22 10:19:31;;;;;;;2.22;2.13;;;16.30;97.80;;;;;;5058435;28;20072;-77
2023/02/22 10:22:03;;;;;;;2.83;2.42;;;16.30;97.90;;;;;;5044026;28;20043;-77
2023/02/22 10:24:44;;;;;;;2.28;2.17;;;16.30;97.90;;;;;;5044297;28;20694;-76
2023/02/22 10:27:19;;;;;;;2.03;1.92;;;16.30;97.90;;;;;;5064774;28;20138;-76
2023/02/22 10:29:56;;;;;;;2.40;2.30;;;16.20;98.20;;;;;;5063360;28;20032;-78
2023/02/22 10:32:25;;;;;;;2.40;2.25;;;16.20;98.10;;;;;;5056623;28;20049;-77
2023/02/22 10:34:50;;;;;;;2.20;2.10;;;16.20;98.10;;;;;;5048933;28;20135;-76
2023/02/22 10:37:26;;;;;;;1.88;1.77;;;16.20;98.20;;;;;;5047925;28;20513;-78
2023/02/22 10:40:16;;;;;;;2.13;2.03;;;16.20;98.20;;;;;;5047035;28;20403;-79
2023/02/22 10:42:41;;;;;;;2.22;1.58;;;16.20;98.10;;;;;;5064004;28;20059;-78
2023/02/22 10:45:36;;;;;;;2.50;1.75;;;16.20;98.00;;;;;;5058902;28;20045;-77
2023/02/22 10:48:07;;;;;;;1.70;1.60;;;16.30;98.10;;;;;;5052017;28;20127;-78
2023/02/22 10:50:33;;;;;;;2.10;2.00;;;16.20;98.10;;;;;;5045162;28;20040;-78
2023/02/22 10:53:22;;;;;;;2.60;1.85;;;16.20;98.20;;;;;;5036999;28;20477;-79
2023/02/22 10:56:06;;;;;;;1.80;1.70;;;16.20;98.10;;;;;;5035415;28;20063;-79
2023/02/22 10:58:54;;;;;;;1.60;1.50;;;16.40;97.90;;;;;;5040252;28;20033;-78
2023/02/22 11:01:27;;;;;;;2.20;1.90;;;16.40;97.80;;;;;;5078655;28;20048;-76
2023/02/22 11:04:16;;;;;;;1.73;1.63;;;16.30;97.80;;;;;;5052075;28;20112;-78
2023/02/22 11:06:47;;;;;;;1.55;1.50;;;16.40;97.90;;;;;;5048416;28;20040;-76
2023/02/22 11:09:21;;;;;;;1.73;1.63;;;16.50;97.80;;;;;;5052916;28;20131;-77
2023/02/22 11:11:47;;;;;;;;;;;16.40;97.70;;;;;;5046509;28;20067;-77
2023/02/22 11:14:26;;;;;;;1.83;1.73;;;16.40;97.90;;;;;;5046263;28;20360;-77
2023/02/22 11:16:53;;;;;;;1.70;1.60;;;16.40;97.80;;;;;;5046649;28;20128;-75
2023/02/22 11:19:28;;;;;;;1.50;1.50;;;16.40;97.80;;;;;;5042385;28;20049;-75
2023/02/22 11:22:18;;;;;;;1.40;1.40;;;16.40;97.90;;;;;;5046107;28;20654;-75
2023/02/22 11:24:56;;;;;;;1.75;1.65;;;16.40;98.10;;;;;;5042623;28;20567;-74
2023/02/22 11:27:24;;;;;;;1.77;1.67;;;16.40;98.30;;;;;;5079376;28;20052;-74
2023/02/22 11:29:49;;;;;;;2.70;1.88;;;16.40;98.20;;;;;;5030131;28;20081;-76
2023/02/22 11:32:20;;;;;;;1.92;1.83;;;16.40;98.20;;;;;;5038849;28;20614;-75
2023/02/22 11:34:48;;;;;;;1.80;1.70;;;16.40;98.10;;;;;;5034396;28;20040;-75
2023/02/22 11:37:15;;;;;;;1.80;1.70;;;16.40;98.10;;;;;;5047979;28;20060;-75
2023/02/22 11:39:42;;;;;;;2.08;1.98;;;16.40;98.00;;;;;;5046796;28;20048;-75
2023/02/22 11:42:24;;;;;;;2.65;1.48;;;16.40;97.80;;;;;;5057338;28;20112;-73
2023/02/22 11:45:08;;;;;;;1.92;1.83;;;16.40;98.10;;;;;;5046729;28;20056;-75
2023/02/22 11:47:34;;;;;;;1.90;1.80;;;16.40;98.00;;;;;;5046524;28;20052;-74
2023/02/22 11:50:01;;;;;;;1.70;1.60;;;16.50;98.10;;;;;;5044844;28;20079;-75
2023/02/22 11:52:29;;;;;;;1.98;1.85;;;16.60;98.40;;;;;;5050340;28;20490;-76
2023/02/22 11:55:00;;;;;;;2.60;2.40;;;16.50;98.30;;;;;;5048207;28;20528;-76
2023/02/22 11:57:45;;;;;;;2.60;2.13;;;16.60;98.70;;;;;;5045840;28;20128;-75
2023/02/22 12:00:23;;;;;;;1.92;1.83;;;16.60;98.70;;;;;;4693236;28;9999945;-74
2023/02/22 12:03:00;;;;;;;2.15;2.05;;;16.70;98.80;;;;;;5048167;28;20114;-74
2023/02/22 12:05:37;;;;;;;2.00;1.90;;;16.60;98.70;;;;;;5049805;28;20045;-75
2023/02/22 12:08:15;;;;;;;2.65;2.10;;;16.60;98.70;;;;;;5044710;28;20041;-74
2023/02/22 12:10:54;;;;;;;2.28;2.00;;;16.60;98.90;;;;;;5038222;28;20044;-74
2023/02/22 12:13:39;;;;;;;1.92;1.83;;;16.50;98.60;;;;;;5047525;28;20425;-74
2023/02/22 12:16:32;;;;;;;1.77;1.67;;;16.50;98.70;;;;;;5049753;28;20036;-74
2023/02/22 12:19:16;;;;;;;2.22;1.83;;;16.50;98.80;;;;;;5050672;28;20135;-75
2023/02/22 12:21:44;;;;;;;2.10;2.00;;;16.50;98.70;;;;;;5050991;28;20063;-76
2023/02/22 12:24:15;;;;;;;2.08;1.92;;;16.50;98.60;;;;;;4993336;28;20468;-77
2023/02/22 12:26:52;;;;;;;1.80;1.70;;;16.50;98.60;;;;;;5030984;28;20064;-77
2023/02/22 12:29:24;;;;;;;1.20;1.20;;;16.60;98.50;;;;;;5017799;28;20128;-75
2023/02/22 12:31:54;;;;;;;1.90;1.80;;;16.50;98.50;;;;;;5020418;28;20054;-76
2023/02/22 12:34:28;;;;;;;1.50;1.40;;;16.50;98.50;;;;;;5030328;28;20049;-75
2023/02/22 12:36:55;;;;;;;1.60;1.50;;;16.60;98.40;;;;;;4690369;28;9999791;-75
2023/02/22 12:39:33;;;;;;;2.50;1.42;;;16.60;98.40;;;;;;5048031;28;20067;-75
2023/02/22 12:41:59;;;;;;;2.13;1.50;;;16.60;98.50;;;;;;5050803;28;20047;-75
2023/02/22 12:44:31;;;;;;;1.45;1.33;;;16.50;98.50;;;;;;5028696;28;20095;-75
2023/02/22 12:46:58;;;;;;;2.05;1.60;;;16.40;98.60;;;;;;5019638;28;20497;-75
2023/02/22 12:49:42;;;;;;;1.55;1.45;;;16.40;98.60;;;;;;5032953;28;20107;-74
2023/02/22 12:52:31;;;;;;;1.50;1.40;;;16.40;98.60;;;;;;5052865;28;20865;-77
2023/02/22 12:55:10;;;;;;;1.30;1.23;;;16.40;98.60;;;;;;5036997;28;20083;-76
2023/02/22 12:57:53;;;;;;;0.93;0.93;;;16.40;98.50;;;;;;5033901;28;20040;-76
2023/02/22 13:00:25;;;;;;;2.88;1.27;;;16.40;98.60;;;;;;5036929;28;20056;-77